Time;durP1;ratioP1;P1;durP2;ratioP2;P2;SDS_P1;SDS_P2;PMS_P1;PMS_P2;Temp;Humidity;BMP_temperature;BMP_pressure;BME280_temperature;BME280_humidity;BME280_pressure;Samples;Min_cycle;Max_cycle;Signal;HPM_P1;HPM_P2
2023/06/12 00:01:47;;;;;;;4.68;3.40;;;24.10;40.80;;;;;;5080958;28;20024;-68
2023/06/12 00:04:13;;;;;;;3.00;2.70;;;24.10;40.90;;;;;;5089895;28;20024;-69
2023/06/12 00:06:39;;;;;;;5.88;3.63;;;24.10;40.80;;;;;;5085762;28;20028;-68
2023/06/12 00:09:05;;;;;;;3.60;2.95;;;24.10;41.00;;;;;;5082227;28;20043;-68
2023/06/12 00:11:31;;;;;;;3.70;3.30;;;24.10;41.00;;;;;;5086649;28;20028;-68
2023/06/12 00:13:57;;;;;;;5.15;3.30;;;24.00;41.10;;;;;;5087264;28;20044;-68
2023/06/12 00:16:23;;;;;;;4.10;3.47;;;23.90;41.10;;;;;;5090250;28;20514;-68
2023/06/12 00:18:49;;;;;;;4.47;3.05;;;23.90;41.20;;;;;;5097015;28;20022;-68
2023/06/12 00:21:15;;;;;;;4.65;3.15;;;23.90;41.20;;;;;;5090890;28;20448;-68
2023/06/12 00:23:41;;;;;;;3.53;3.22;;;23.90;41.20;;;;;;5078564;28;20582;-68
2023/06/12 00:26:07;;;;;;;4.78;3.10;;;23.90;41.30;;;;;;5086439;28;20099;-67
2023/06/12 00:28:32;;;;;;;5.40;3.00;;;23.90;41.30;;;;;;5084550;28;20031;-67
2023/06/12 00:30:58;;;;;;;4.30;3.75;;;23.90;41.30;;;;;;5091102;28;20028;-67
2023/06/12 00:33:25;;;;;;;4.60;3.30;;;23.80;41.40;;;;;;5087320;28;20036;-68
2023/06/12 00:35:51;;;;;;;4.78;3.13;;;23.70;41.50;;;;;;5075274;28;20019;-67
2023/06/12 00:38:17;;;;;;;4.75;3.28;;;23.80;41.60;;;;;;5085967;28;20110;-68
2023/06/12 00:40:43;;;;;;;3.40;2.78;;;23.70;41.60;;;;;;5075967;28;20017;-68
2023/06/12 00:43:09;;;;;;;3.22;2.85;;;23.70;41.80;;;;;;5078602;28;20060;-68
2023/06/12 00:45:35;;;;;;;4.38;3.10;;;23.70;41.60;;;;;;5082803;28;20020;-68
2023/06/12 00:48:01;;;;;;;3.42;2.90;;;23.70;41.70;;;;;;5079868;28;20344;-66
2023/06/12 00:50:27;;;;;;;3.13;2.72;;;23.70;41.70;;;;;;5073244;28;20065;-67
2023/06/12 00:52:55;;;;;;;4.32;3.20;;;23.70;41.70;;;;;;5087675;28;20172;-66
2023/06/12 00:55:21;;;;;;;4.85;3.47;;;23.70;41.70;;;;;;5101540;28;20028;-67
2023/06/12 00:57:47;;;;;;;5.68;3.47;;;23.60;41.60;;;;;;5073208;28;20029;-67
2023/06/12 01:00:15;;;;;;;4.10;3.60;;;23.60;41.80;;;;;;5080365;28;20109;-67
2023/06/12 01:02:44;;;;;;;3.08;2.78;;;23.50;41.90;;;;;;5091027;28;20024;-67
2023/06/12 01:05:15;;;;;;;3.97;3.33;;;23.50;41.80;;;;;;5081628;28;20029;-68
2023/06/12 01:08:04;;;;;;;4.10;3.42;;;23.50;41.80;;;;;;5075113;28;20050;-67
2023/06/12 01:10:46;;;;;;;5.00;3.35;;;23.50;41.90;;;;;;5084188;28;20035;-66
2023/06/12 01:13:12;;;;;;;5.57;3.63;;;23.40;42.10;;;;;;5085136;28;20034;-68
2023/06/12 01:15:39;;;;;;;4.55;3.33;;;23.40;42.30;;;;;;5089528;28;20039;-66
2023/06/12 01:18:06;;;;;;;4.72;3.42;;;23.30;42.30;;;;;;5082811;28;20028;-66
2023/06/12 01:20:33;;;;;;;4.55;3.30;;;23.30;42.30;;;;;;5078076;28;20020;-66
2023/06/12 01:23:09;;;;;;;5.90;3.33;;;23.30;42.30;;;;;;5086951;28;20027;-67
2023/06/12 01:25:53;;;;;;;3.50;3.20;;;23.30;42.40;;;;;;5072435;28;20021;-67
2023/06/12 01:28:55;;;;;;;5.53;3.78;;;23.20;42.40;;;;;;5076034;28;20517;-66
2023/06/12 01:31:31;;;;;;;4.40;3.40;;;23.20;42.40;;;;;;5085834;28;20036;-67
2023/06/12 01:34:06;;;;;;;4.18;3.00;;;23.20;42.50;;;;;;5078763;28;20527;-66
2023/06/12 01:36:36;;;;;;;4.65;3.13;;;23.20;42.50;;;;;;5081201;28;20050;-67
2023/06/12 01:39:04;;;;;;;3.58;3.00;;;23.10;42.60;;;;;;5087737;28;20073;-66
2023/06/12 01:41:31;;;;;;;5.13;3.00;;;23.20;42.60;;;;;;5078426;28;20598;-68
2023/06/12 01:44:06;;;;;;;4.45;3.40;;;23.10;42.60;;;;;;5079885;28;20028;-68
2023/06/12 01:46:32;;;;;;;3.55;3.00;;;23.10;42.70;;;;;;5081791;28;20020;-68
2023/06/12 01:48:57;;;;;;;4.85;2.90;;;23.00;42.70;;;;;;5078495;28;20070;-68
2023/06/12 01:51:23;;;;;;;3.65;2.90;;;23.10;42.80;;;;;;5082134;28;20100;-67
2023/06/12 01:53:48;;;;;;;3.95;3.00;;;23.00;42.80;;;;;;5104828;28;20391;-68
2023/06/12 01:56:17;;;;;;;4.88;3.70;;;23.00;42.90;;;;;;5096111;28;20028;-68
2023/06/12 01:58:43;;;;;;;4.00;3.30;;;23.00;42.90;;;;;;5084410;28;20035;-67
2023/06/12 02:01:08;;;;;;;3.85;3.22;;;22.90;43.00;;;;;;5079030;28;20474;-68
2023/06/12 02:03:36;;;;;;;4.22;3.47;;;22.90;43.00;;;;;;5086132;28;20032;-67
2023/06/12 02:06:02;;;;;;;5.35;3.67;;;22.90;43.00;;;;;;5076142;28;20493;-67
2023/06/12 02:08:28;;;;;;;4.18;3.10;;;22.80;43.00;;;;;;5077481;28;20645;-67
2023/06/12 02:10:53;;;;;;;5.13;3.05;;;22.80;43.00;;;;;;5085235;28;20028;-65
2023/06/12 02:13:19;;;;;;;5.60;3.58;;;22.70;43.10;;;;;;5082449;28;20033;-66
2023/06/12 02:15:46;;;;;;;4.25;3.20;;;22.70;43.30;;;;;;5086514;28;20082;-66
2023/06/12 02:18:11;;;;;;;5.18;3.53;;;22.70;43.30;;;;;;5078516;28;20036;-65
2023/06/12 02:20:37;;;;;;;4.32;3.10;;;22.60;43.30;;;;;;5088966;28;20028;-68
2023/06/12 02:23:03;;;;;;;4.13;3.13;;;22.50;43.40;;;;;;5077512;28;20103;-67
2023/06/12 02:25:28;;;;;;;3.85;3.40;;;22.60;43.50;;;;;;5070838;28;20042;-66
2023/06/12 02:27:54;;;;;;;5.13;3.65;;;22.50;43.40;;;;;;5090733;28;20063;-67
2023/06/12 02:30:19;;;;;;;4.65;3.30;;;22.50;43.50;;;;;;5103919;28;20038;-67
2023/06/12 02:32:47;;;;;;;4.03;3.13;;;22.50;43.50;;;;;;5084404;28;20371;-68
2023/06/12 02:35:12;;;;;;;4.32;3.58;;;22.50;43.50;;;;;;5078636;28;20299;-67
2023/06/12 02:37:38;;;;;;;4.47;3.47;;;22.40;43.40;;;;;;5086797;28;20020;-68
2023/06/12 02:40:04;;;;;;;4.72;3.40;;;22.30;43.50;;;;;;5087346;28;20016;-68
2023/06/12 02:42:30;;;;;;;5.28;3.40;;;22.30;43.50;;;;;;5082943;28;20024;-68
2023/06/12 02:44:55;;;;;;;4.88;3.28;;;22.30;43.60;;;;;;5096650;28;20111;-67
2023/06/12 02:47:21;;;;;;;5.03;3.50;;;22.30;43.70;;;;;;5093698;28;20055;-68
2023/06/12 02:49:47;;;;;;;3.92;3.38;;;22.30;43.60;;;;;;5088210;28;20099;-68
2023/06/12 02:52:12;;;;;;;3.83;3.13;;;22.30;43.60;;;;;;5077733;28;20008;-68
2023/06/12 02:54:38;;;;;;;7.97;5.95;;;22.30;43.50;;;;;;5082572;28;20057;-67
2023/06/12 02:57:04;;;;;;;7.05;4.60;;;22.30;43.50;;;;;;5089012;28;20078;-67
2023/06/12 02:59:30;;;;;;;5.60;3.75;;;22.30;43.60;;;;;;5083457;28;20050;-68
2023/06/12 03:01:55;;;;;;;5.78;3.38;;;22.30;43.60;;;;;;5083571;28;20020;-68
2023/06/12 03:04:21;;;;;;;4.65;3.40;;;22.20;43.70;;;;;;5082839;28;20028;-67
2023/06/12 03:06:51;;;;;;;4.63;3.35;;;22.20;43.70;;;;;;5070338;28;20044;-67
2023/06/12 03:09:18;;;;;;;4.18;3.33;;;22.20;43.80;;;;;;5082166;28;20027;-66
2023/06/12 03:11:44;;;;;;;3.88;3.25;;;22.20;43.80;;;;;;5083913;28;20027;-68
2023/06/12 03:14:12;;;;;;;4.82;3.67;;;22.20;43.80;;;;;;5074835;28;20024;-67
2023/06/12 03:16:38;;;;;;;4.60;3.63;;;22.20;43.80;;;;;;5072695;28;20020;-68
2023/06/12 03:19:05;;;;;;;4.75;3.20;;;22.10;43.80;;;;;;5074532;28;20029;-67
2023/06/12 03:21:31;;;;;;;5.07;3.30;;;22.20;43.80;;;;;;5093233;28;20020;-68
2023/06/12 03:23:57;;;;;;;3.35;3.03;;;22.20;43.90;;;;;;5080241;28;20055;-67
2023/06/12 03:26:23;;;;;;;3.70;3.10;;;22.20;43.80;;;;;;5077223;28;20035;-68
2023/06/12 03:28:48;;;;;;;4.10;3.20;;;22.20;43.70;;;;;;5082917;28;20020;-68
2023/06/12 03:31:14;;;;;;;5.32;3.30;;;22.20;43.80;;;;;;5074788;28;20070;-68
2023/06/12 03:33:39;;;;;;;7.53;3.40;;;22.20;43.90;;;;;;5073225;28;20028;-67
2023/06/12 03:36:05;;;;;;;5.88;4.03;;;22.10;43.90;;;;;;5088264;28;20395;-68
2023/06/12 03:38:31;;;;;;;5.25;3.40;;;22.10;44.00;;;;;;5086508;28;20043;-68
2023/06/12 03:40:56;;;;;;;4.85;3.70;;;22.00;44.10;;;;;;5072348;28;20095;-68
2023/06/12 03:43:22;;;;;;;4.35;3.58;;;22.00;44.20;;;;;;5075114;28;20024;-68
2023/06/12 03:45:48;;;;;;;5.30;3.50;;;21.90;44.30;;;;;;5083380;28;20505;-68
2023/06/12 03:48:14;;;;;;;5.03;3.72;;;21.90;44.40;;;;;;5069597;28;20039;-68
2023/06/12 03:50:39;;;;;;;4.70;3.70;;;21.90;44.40;;;;;;5085552;28;20028;-68
2023/06/12 03:53:05;;;;;;;5.70;3.55;;;21.90;44.40;;;;;;5081798;28;20032;-69
2023/06/12 03:55:32;;;;;;;4.75;3.72;;;21.90;44.40;;;;;;5086243;28;20027;-68
2023/06/12 03:57:57;;;;;;;4.95;3.47;;;21.90;44.50;;;;;;5079624;28;20441;-68
2023/06/12 04:00:23;;;;;;;5.35;3.60;;;21.90;44.60;;;;;;5077240;28;20032;-67
2023/06/12 04:02:48;;;;;;;4.97;3.42;;;21.90;44.70;;;;;;5089679;28;20117;-68
2023/06/12 04:05:14;;;;;;;4.45;3.30;;;21.80;44.70;;;;;;5082569;28;20603;-68
2023/06/12 04:07:40;;;;;;;5.10;3.80;;;21.80;44.80;;;;;;5071516;28;20024;-67
2023/06/12 04:10:08;;;;;;;5.93;3.58;;;21.80;44.90;;;;;;5084668;28;20036;-66
2023/06/12 04:12:34;;;;;;;4.80;3.90;;;21.80;44.90;;;;;;5083877;28;20020;-67
2023/06/12 04:15:01;;;;;;;3.92;3.53;;;21.80;45.00;;;;;;5079464;28;20359;-66
2023/06/12 04:17:26;;;;;;;4.35;3.50;;;21.80;45.00;;;;;;5071512;28;20024;-67
2023/06/12 04:19:52;;;;;;;4.45;3.20;;;21.80;45.10;;;;;;5078588;28;20029;-67
2023/06/12 04:22:19;;;;;;;4.72;3.60;;;21.80;45.00;;;;;;5080447;28;20040;-67
2023/06/12 04:24:45;;;;;;;3.85;3.40;;;21.90;45.10;;;;;;5070029;28;20024;-68
2023/06/12 04:27:10;;;;;;;5.45;3.20;;;21.90;45.10;;;;;;5080257;28;20032;-67
2023/06/12 04:29:37;;;;;;;3.30;2.95;;;22.00;45.00;;;;;;5081273;28;20032;-66
2023/06/12 04:32:06;;;;;;;4.75;3.40;;;22.10;45.10;;;;;;5075973;28;20479;-67
2023/06/12 04:34:43;;;;;;;4.88;3.28;;;22.10;44.90;;;;;;5088342;28;20020;-67
2023/06/12 04:37:13;;;;;;;3.50;3.20;;;22.10;44.80;;;;;;5088541;28;20489;-67
2023/06/12 04:39:40;;;;;;;3.83;3.22;;;22.20;44.90;;;;;;5093551;28;20034;-68
2023/06/12 04:42:07;;;;;;;4.47;2.80;;;22.20;44.70;;;;;;5085937;28;20028;-67
2023/06/12 04:44:34;;;;;;;3.40;2.55;;;22.30;44.70;;;;;;5086371;28;20081;-67
2023/06/12 04:47:02;;;;;;;4.32;2.85;;;22.30;44.60;;;;;;5080557;28;20047;-67
2023/06/12 04:49:29;;;;;;;4.57;3.20;;;22.40;44.60;;;;;;5086476;28;20099;-68
2023/06/12 04:51:56;;;;;;;3.85;3.00;;;22.50;44.50;;;;;;5081067;28;20036;-67
2023/06/12 04:54:22;;;;;;;6.50;3.17;;;23.10;44.00;;;;;;5080821;28;20028;-67
2023/06/12 04:56:48;;;;;;;5.25;3.10;;;23.60;43.40;;;;;;5087886;28;20069;-67
2023/06/12 04:59:16;;;;;;;4.05;2.95;;;24.10;42.70;;;;;;5081704;28;20017;-67
2023/06/12 05:01:44;;;;;;;4.57;3.17;;;24.30;42.00;;;;;;5087652;28;20034;-68
2023/06/12 05:04:10;;;;;;;3.90;2.92;;;24.70;41.60;;;;;;5091872;28;20052;-67
2023/06/12 05:06:37;;;;;;;3.97;3.30;;;25.10;41.20;;;;;;5096580;28;20080;-68
2023/06/12 05:09:06;;;;;;;3.35;2.85;;;25.50;40.70;;;;;;5096471;28;20035;-68
2023/06/12 05:11:31;;;;;;;6.38;3.50;;;25.80;40.20;;;;;;5099263;28;20031;-68
2023/06/12 05:13:57;;;;;;;4.60;3.45;;;25.90;39.90;;;;;;5088144;28;20032;-67
2023/06/12 05:16:23;;;;;;;4.40;3.60;;;26.00;39.70;;;;;;5074238;28;20049;-68
2023/06/12 05:18:48;;;;;;;5.80;3.63;;;26.20;39.70;;;;;;5082601;28;20032;-68
2023/06/12 05:21:14;;;;;;;5.15;3.90;;;26.20;39.50;;;;;;5098513;28;20025;-68
2023/06/12 05:23:40;;;;;;;5.40;3.65;;;26.20;39.30;;;;;;5086498;28;20031;-68
2023/06/12 05:26:05;;;;;;;4.13;3.60;;;25.80;39.50;;;;;;5084980;28;20024;-68
2023/06/12 05:28:31;;;;;;;5.03;3.80;;;25.70;39.80;;;;;;5082080;28;20032;-67
2023/06/12 05:30:57;;;;;;;4.55;3.75;;;25.90;40.00;;;;;;5079327;28;20036;-68
2023/06/12 05:33:22;;;;;;;4.38;3.67;;;26.00;39.80;;;;;;5086175;28;20560;-68
2023/06/12 05:35:49;;;;;;;3.70;3.40;;;26.00;39.80;;;;;;5079385;28;20016;-67
2023/06/12 05:38:15;;;;;;;4.43;3.53;;;26.00;39.80;;;;;;5102402;28;20023;-68
2023/06/12 05:40:41;;;;;;;6.07;3.70;;;26.10;39.80;;;;;;5085252;28;20016;-67
2023/06/12 05:43:06;;;;;;;5.47;3.80;;;26.30;39.60;;;;;;5087903;28;20074;-67
2023/06/12 05:45:32;;;;;;;5.22;3.55;;;26.20;39.40;;;;;;5086662;28;20028;-67
2023/06/12 05:47:57;;;;;;;4.40;3.08;;;26.20;39.60;;;;;;5097468;28;20204;-68
2023/06/12 05:50:23;;;;;;;4.30;3.78;;;26.40;39.80;;;;;;5080771;28;20493;-67
2023/06/12 05:52:49;;;;;;;4.80;3.60;;;26.20;39.40;;;;;;5080541;28;20107;-69
2023/06/12 05:55:17;;;;;;;6.25;3.78;;;26.10;39.40;;;;;;5084387;28;20376;-67
2023/06/12 05:57:42;;;;;;;3.95;3.40;;;26.00;39.50;;;;;;5090633;28;20024;-68
2023/06/12 06:00:10;;;;;;;4.68;3.50;;;26.00;39.70;;;;;;5080600;28;20145;-67
2023/06/12 06:02:37;;;;;;;4.53;3.55;;;26.00;39.60;;;;;;5080874;28;20411;-67
2023/06/12 06:05:02;;;;;;;4.88;3.45;;;26.10;39.70;;;;;;5083795;28;20625;-67
2023/06/12 06:07:28;;;;;;;4.50;3.33;;;26.20;39.90;;;;;;5083986;28;20026;-70
2023/06/12 06:09:54;;;;;;;4.60;3.92;;;26.20;39.70;;;;;;5085994;28;20046;-68
2023/06/12 06:12:20;;;;;;;5.55;4.38;;;26.20;39.40;;;;;;5083002;28;20612;-68
2023/06/12 06:14:45;;;;;;;6.30;4.07;;;26.00;39.40;;;;;;5089488;28;20025;-67
2023/06/12 06:17:11;;;;;;;4.78;3.83;;;26.00;40.20;;;;;;5078599;28;20500;-66
2023/06/12 06:19:37;;;;;;;5.28;3.75;;;26.10;39.40;;;;;;5086711;28;20553;-67
2023/06/12 06:22:04;;;;;;;4.45;3.92;;;26.10;39.30;;;;;;5089149;28;20432;-68
2023/06/12 06:24:30;;;;;;;5.03;3.40;;;26.10;39.30;;;;;;5077622;28;20167;-68
2023/06/12 06:26:55;;;;;;;5.50;3.85;;;26.30;39.40;;;;;;5077368;28;20449;-67
2023/06/12 06:29:21;;;;;;;5.28;3.90;;;26.40;39.00;;;;;;5084670;28;20040;-68
2023/06/12 06:31:48;;;;;;;5.40;3.67;;;26.40;38.70;;;;;;5089232;28;20044;-67
2023/06/12 06:34:14;;;;;;;6.43;4.10;;;26.50;38.50;;;;;;5082664;28;20103;-66
2023/06/12 06:36:39;;;;;;;3.70;3.38;;;26.60;38.40;;;;;;5091308;28;20024;-67
2023/06/12 06:39:05;;;;;;;5.00;3.88;;;26.70;38.60;;;;;;5077201;28;20078;-67
2023/06/12 06:41:31;;;;;;;3.95;3.55;;;26.80;38.10;;;;;;5096529;28;20031;-67
2023/06/12 06:43:56;;;;;;;7.55;4.10;;;26.70;37.90;;;;;;5082584;28;20084;-67
2023/06/12 06:46:22;;;;;;;4.55;3.83;;;26.70;37.80;;;;;;5086533;28;20415;-66
2023/06/12 06:48:47;;;;;;;5.20;4.10;;;26.60;37.80;;;;;;5098610;28;20023;-67
2023/06/12 06:51:13;;;;;;;4.80;3.97;;;26.60;38.00;;;;;;5076953;28;20028;-67
2023/06/12 06:53:38;;;;;;;5.35;3.88;;;26.50;38.00;;;;;;5082256;28;20077;-65
2023/06/12 06:56:04;;;;;;;5.60;3.78;;;26.50;38.30;;;;;;5088991;28;20028;-66
2023/06/12 06:58:30;;;;;;;5.90;4.10;;;26.60;38.30;;;;;;5099985;28;20102;-68
2023/06/12 07:00:55;;;;;;;5.15;3.97;;;26.60;38.30;;;;;;5085032;28;20345;-67
2023/06/12 07:03:21;;;;;;;7.20;4.20;;;26.70;38.50;;;;;;5080914;28;20024;-68
2023/06/12 07:05:47;;;;;;;6.15;4.03;;;26.70;38.40;;;;;;5078289;28;20035;-67
2023/06/12 07:08:12;;;;;;;4.68;3.97;;;26.90;38.50;;;;;;5076368;28;20021;-67
2023/06/12 07:10:38;;;;;;;4.90;3.95;;;27.00;38.60;;;;;;5088734;28;20035;-68
2023/06/12 07:13:03;;;;;;;6.15;4.20;;;27.00;38.50;;;;;;5085704;28;20028;-68
2023/06/12 07:15:30;;;;;;;6.10;4.40;;;26.90;38.50;;;;;;5078841;28;20016;-67
2023/06/12 07:17:56;;;;;;;4.82;4.05;;;26.90;38.70;;;;;;5074494;28;20028;-68
2023/06/12 07:20:21;;;;;;;4.43;3.83;;;26.90;38.80;;;;;;5090800;28;20016;-68
2023/06/12 07:22:47;;;;;;;5.15;4.28;;;26.90;39.00;;;;;;5082606;28;20085;-68
2023/06/12 07:25:12;;;;;;;5.78;4.10;;;27.10;38.90;;;;;;5089327;28;20506;-67
2023/06/12 07:27:38;;;;;;;6.55;4.70;;;27.10;38.70;;;;;;5083505;28;20359;-67
2023/06/12 07:30:05;;;;;;;5.78;4.13;;;27.00;38.60;;;;;;5082699;28;20040;-68
2023/06/12 07:32:31;;;;;;;5.63;4.30;;;27.00;39.10;;;;;;5079031;28;20066;-68
2023/06/12 07:34:57;;;;;;;6.13;4.43;;;27.10;39.20;;;;;;5080765;28;20044;-68
2023/06/12 07:37:23;;;;;;;5.22;3.95;;;27.30;39.10;;;;;;5084777;28;20510;-68
2023/06/12 07:39:48;;;;;;;5.75;3.97;;;27.50;39.10;;;;;;5085040;28;20434;-68
2023/06/12 07:42:14;;;;;;;4.72;4.03;;;27.80;38.90;;;;;;5086820;28;20048;-69
2023/06/12 07:44:40;;;;;;;5.47;3.90;;;27.80;38.40;;;;;;5084012;28;20702;-67
2023/06/12 07:47:06;;;;;;;4.95;4.25;;;27.80;38.70;;;;;;5086372;28;20046;-66
2023/06/12 07:49:32;;;;;;;5.07;4.18;;;28.00;38.70;;;;;;5094168;28;20030;-68
2023/06/12 07:51:58;;;;;;;5.82;3.90;;;28.00;38.60;;;;;;5077927;28;20032;-66
2023/06/12 07:54:23;;;;;;;5.53;4.35;;;28.00;38.60;;;;;;5084603;28;20078;-66
2023/06/12 07:56:51;;;;;;;4.95;4.30;;;28.10;38.40;;;;;;5081364;28;20020;-68
2023/06/12 07:59:18;;;;;;;3.92;3.45;;;28.10;38.60;;;;;;5087579;28;20053;-68
2023/06/12 08:01:43;;;;;;;4.28;3.88;;;28.20;38.60;;;;;;5086756;28;20025;-67
2023/06/12 08:04:09;;;;;;;7.63;4.10;;;28.30;38.60;;;;;;5086383;28;20479;-67
2023/06/12 08:06:36;;;;;;;6.22;4.15;;;28.40;38.50;;;;;;5084044;28;20024;-67
2023/06/12 08:09:04;;;;;;;6.32;4.22;;;28.30;38.10;;;;;;5083385;28;20048;-66
2023/06/12 08:11:32;;;;;;;7.25;4.32;;;28.10;38.00;;;;;;5084926;28;20105;-67
2023/06/12 08:13:58;;;;;;;6.60;3.95;;;28.20;38.20;;;;;;5083056;28;20040;-68
2023/06/12 08:16:24;;;;;;;4.55;4.00;;;28.30;38.10;;;;;;5083163;28;20020;-68
2023/06/12 08:18:49;;;;;;;6.32;4.30;;;28.40;37.90;;;;;;5081636;28;20080;-68
2023/06/12 08:21:16;;;;;;;4.93;4.30;;;28.40;37.70;;;;;;5081371;28;20036;-68
2023/06/12 08:24:15;;;;;;;7.32;4.35;;;28.50;37.90;;;;;;5085371;28;20031;-67
2023/06/12 08:26:40;;;;;;;5.60;4.10;;;28.50;37.80;;;;;;5082546;28;20506;-68
2023/06/12 08:29:06;;;;;;;5.63;4.00;;;28.60;37.80;;;;;;5084412;28;20102;-68
2023/06/12 08:31:33;;;;;;;5.57;4.30;;;28.70;37.40;;;;;;5083927;28;20024;-68
2023/06/12 08:33:58;;;;;;;5.80;4.40;;;28.60;37.40;;;;;;5083210;28;20058;-68
2023/06/12 08:36:25;;;;;;;5.65;4.20;;;28.60;37.10;;;;;;5086042;28;20530;-68
2023/06/12 08:38:50;;;;;;;5.57;4.50;;;28.70;37.30;;;;;;5082260;28;20024;-67
2023/06/12 08:41:19;;;;;;;4.85;3.90;;;28.90;36.80;;;;;;5083132;28;20024;-67
2023/06/12 08:43:47;;;;;;;5.30;4.65;;;29.00;36.60;;;;;;5084922;28;20027;-67
2023/06/12 08:46:16;;;;;;;5.88;4.47;;;29.00;36.20;;;;;;5085963;28;20043;-68
2023/06/12 08:48:44;;;;;;;6.82;4.47;;;29.00;36.30;;;;;;5084036;28;20029;-67
2023/06/12 08:51:10;;;;;;;5.40;4.30;;;28.90;36.70;;;;;;5086256;28;20081;-68
2023/06/12 08:53:36;;;;;;;6.22;4.70;;;29.00;36.80;;;;;;5082226;28;20036;-68
2023/06/12 08:56:02;;;;;;;5.95;4.40;;;29.20;36.30;;;;;;5082825;28;20044;-67
2023/06/12 08:58:28;;;;;;;5.53;4.40;;;29.30;35.70;;;;;;5087167;28;20103;-68
2023/06/12 09:00:54;;;;;;;5.38;4.40;;;29.30;35.80;;;;;;5080784;28;20557;-68
2023/06/12 09:03:20;;;;;;;4.70;4.15;;;29.50;36.00;;;;;;5086256;28;20031;-67
2023/06/12 09:05:47;;;;;;;6.43;4.55;;;29.50;36.10;;;;;;5086119;28;20110;-67
2023/06/12 09:08:13;;;;;;;4.70;4.10;;;29.50;35.50;;;;;;5086243;28;20024;-67
2023/06/12 09:10:38;;;;;;;6.03;4.85;;;29.50;35.40;;;;;;5085728;28;20074;-68
2023/06/12 09:13:09;;;;;;;4.50;3.88;;;29.60;35.50;;;;;;5088072;28;20032;-68
2023/06/12 09:15:36;;;;;;;;;;;29.60;35.10;;;;;;5089758;28;20580;-68
2023/06/12 09:18:02;;;;;;;6.72;4.50;;;29.60;35.20;;;;;;5090419;28;20462;-68
2023/06/12 09:20:28;;;;;;;4.38;3.97;;;29.70;35.70;;;;;;5086060;28;20103;-68
2023/06/12 09:22:55;;;;;;;4.70;4.07;;;29.80;35.80;;;;;;5081592;28;20498;-69
2023/06/12 09:25:25;;;;;;;6.30;4.60;;;29.90;35.50;;;;;;5092727;28;20429;-68
2023/06/12 09:27:51;;;;;;;5.97;4.20;;;30.00;35.40;;;;;;5090336;28;20106;-68
2023/06/12 09:30:17;;;;;;;5.93;4.00;;;30.30;35.10;;;;;;5089238;28;20190;-68
2023/06/12 09:32:43;;;;;;;5.72;4.38;;;30.40;33.90;;;;;;5092493;28;20022;-68
2023/06/12 09:35:13;;;;;;;4.35;3.95;;;30.30;33.00;;;;;;5087050;28;20367;-68
2023/06/12 09:37:39;;;;;;;4.82;4.30;;;30.20;32.80;;;;;;5092191;28;20073;-68
2023/06/12 09:40:14;;;;;;;5.05;4.55;;;30.20;32.50;;;;;;5093715;28;20046;-68
2023/06/12 09:42:42;;;;;;;5.63;4.25;;;30.10;31.60;;;;;;5090740;28;20025;-68
2023/06/12 09:45:11;;;;;;;7.63;4.38;;;30.10;31.90;;;;;;5092446;28;20012;-69
2023/06/12 09:47:41;;;;;;;5.10;4.30;;;30.00;32.10;;;;;;5083116;28;21122;-68
2023/06/12 09:50:07;;;;;;;7.15;4.40;;;30.00;31.10;;;;;;5079200;28;20020;-69
2023/06/12 09:52:35;;;;;;;5.60;4.68;;;29.90;31.20;;;;;;5087990;28;20020;-67
2023/06/12 09:55:05;;;;;;;5.20;4.68;;;29.90;30.40;;;;;;5089336;28;20051;-68
2023/06/12 09:57:35;;;;;;;6.00;4.30;;;29.70;29.90;;;;;;5083129;28;20024;-67
2023/06/12 10:00:04;;;;;;;6.38;3.92;;;29.70;30.00;;;;;;5088593;28;20012;-69
2023/06/12 10:02:30;;;;;;;5.88;4.05;;;29.80;29.90;;;;;;5087325;28;20043;-68
2023/06/12 10:05:07;;;;;;;5.80;3.80;;;29.70;28.50;;;;;;5085455;28;20036;-68
2023/06/12 10:07:51;;;;;;;7.32;4.32;;;29.60;28.90;;;;;;5086759;28;20020;-68
2023/06/12 10:10:19;;;;;;;5.68;3.72;;;29.60;29.30;;;;;;5087493;28;20035;-68
2023/06/12 10:12:45;;;;;;;4.90;3.92;;;29.80;29.20;;;;;;5086576;28;20035;-67
2023/06/12 10:15:12;;;;;;;4.68;3.75;;;29.80;29.00;;;;;;5089159;28;20375;-67
2023/06/12 10:17:39;;;;;;;5.38;3.80;;;29.90;29.20;;;;;;5088773;28;20027;-68
2023/06/12 10:20:07;;;;;;;5.10;3.72;;;30.00;28.70;;;;;;5087265;28;20028;-68
2023/06/12 10:22:32;;;;;;;4.10;3.60;;;30.10;28.80;;;;;;5085643;28;20016;-67
2023/06/12 10:24:59;;;;;;;5.28;3.80;;;30.30;28.80;;;;;;5086920;28;20036;-69
2023/06/12 10:27:25;;;;;;;7.85;4.10;;;30.30;28.30;;;;;;5088623;28;20066;-67
2023/06/12 10:29:58;;;;;;;5.72;3.97;;;30.20;28.40;;;;;;5084320;28;20099;-67
2023/06/12 10:32:25;;;;;;;4.25;3.85;;;30.30;29.10;;;;;;5086308;28;20482;-69
2023/06/12 10:34:54;;;;;;;5.22;3.95;;;30.20;29.50;;;;;;5086455;28;20028;-68
2023/06/12 10:37:20;;;;;;;4.32;3.80;;;30.20;29.60;;;;;;5085986;28;20028;-68
2023/06/12 10:39:47;;;;;;;4.95;4.22;;;30.40;29.90;;;;;;5087986;28;20012;-67
2023/06/12 10:42:12;;;;;;;4.47;4.00;;;30.40;29.90;;;;;;5084801;28;20401;-68
2023/06/12 10:44:41;;;;;;;6.95;4.40;;;30.60;30.10;;;;;;5088824;28;20766;-69
2023/06/12 10:47:21;;;;;;;4.57;4.00;;;30.60;30.20;;;;;;5079031;28;20406;-68
2023/06/12 10:49:56;;;;;;;4.38;3.97;;;30.50;30.40;;;;;;5085756;28;20021;-69
2023/06/12 10:52:22;;;;;;;7.97;4.35;;;30.60;30.40;;;;;;5091243;28;20048;-67
2023/06/12 10:54:49;;;;;;;4.75;3.97;;;30.60;30.10;;;;;;5082754;28;20037;-68
2023/06/12 10:57:26;;;;;;;4.85;4.05;;;30.50;30.30;;;;;;5084499;28;20051;-68
2023/06/12 10:59:55;;;;;;;4.78;4.03;;;30.50;30.50;;;;;;5086566;28;20020;-67
2023/06/12 11:02:21;;;;;;;5.95;4.10;;;30.60;30.80;;;;;;5082305;28;20032;-69
2023/06/12 11:04:47;;;;;;;4.68;4.20;;;30.70;30.70;;;;;;5085807;28;20081;-68
2023/06/12 11:07:15;;;;;;;6.90;4.43;;;30.60;31.10;;;;;;5084102;28;20046;-68
2023/06/12 11:09:41;;;;;;;5.47;4.10;;;30.60;31.50;;;;;;5082055;28;20035;-67
2023/06/12 11:12:10;;;;;;;4.72;4.10;;;30.60;31.80;;;;;;5078044;28;20023;-68
2023/06/12 11:14:35;;;;;;;6.10;4.38;;;30.80;32.00;;;;;;5086950;28;20016;-68
2023/06/12 11:17:01;;;;;;;5.82;4.28;;;30.90;32.00;;;;;;5084285;28;20028;-68
2023/06/12 11:19:30;;;;;;;5.90;4.43;;;30.90;32.20;;;;;;5091263;28;20509;-68
2023/06/12 11:21:56;;;;;;;5.65;4.72;;;31.00;32.60;;;;;;5089576;28;20021;-67
2023/06/12 11:24:22;;;;;;;4.97;4.47;;;30.90;32.70;;;;;;5084393;28;20501;-67
2023/06/12 11:26:51;;;;;;;4.82;4.32;;;30.90;32.90;;;;;;5088266;28;20016;-68
2023/06/12 11:29:18;;;;;;;5.43;3.60;;;31.00;32.90;;;;;;5089511;28;20036;-68
2023/06/12 11:32:04;;;;;;;5.40;3.97;;;31.30;32.70;;;;;;5085521;28;20024;-68
2023/06/12 11:34:36;;;;;;;5.88;4.70;;;31.30;32.70;;;;;;5101949;28;20445;-67
2023/06/12 11:37:14;;;;;;;4.88;4.45;;;31.40;32.90;;;;;;5090683;28;20032;-68
2023/06/12 11:39:40;;;;;;;5.57;3.95;;;31.30;33.20;;;;;;5093439;28;20714;-68
2023/06/12 11:42:08;;;;;;;5.05;4.25;;;31.40;33.40;;;;;;5092631;28;20040;-69
2023/06/12 11:44:33;;;;;;;4.80;4.30;;;31.40;33.30;;;;;;5096654;28;20364;-68
2023/06/12 11:47:00;;;;;;;4.25;3.80;;;31.50;33.20;;;;;;5093421;28;20034;-69
2023/06/12 11:49:25;;;;;;;4.70;4.20;;;32.00;33.10;;;;;;5102603;28;20455;-67
2023/06/12 11:51:52;;;;;;;4.75;4.07;;;31.90;32.80;;;;;;5091840;28;20023;-68
2023/06/12 11:54:17;;;;;;;4.70;4.20;;;32.00;33.00;;;;;;5097441;28;20032;-68
2023/06/12 11:56:43;;;;;;;5.25;4.32;;;32.10;33.00;;;;;;5098027;28;20101;-68
2023/06/12 11:59:09;;;;;;;4.60;4.20;;;32.10;32.90;;;;;;5095038;28;20108;-68
2023/06/12 12:01:38;;;;;;;5.30;4.30;;;32.00;33.10;;;;;;5096034;28;20100;-68
2023/06/12 12:04:05;;;;;;;5.15;4.18;;;31.90;33.20;;;;;;5092662;28;20038;-67
2023/06/12 12:06:31;;;;;;;6.07;4.35;;;31.80;33.80;;;;;;5098032;28;20082;-69
2023/06/12 12:08:58;;;;;;;4.35;3.95;;;31.80;34.10;;;;;;5093215;28;20036;-69
2023/06/12 12:11:29;;;;;;;7.45;4.30;;;31.80;33.70;;;;;;5097249;28;20057;-68
2023/06/12 12:14:04;;;;;;;4.22;3.83;;;31.90;33.40;;;;;;5092556;28;20453;-68
2023/06/12 12:16:38;;;;;;;5.45;4.18;;;32.00;33.20;;;;;;5093590;28;20090;-69
2023/06/12 12:19:16;;;;;;;4.85;4.20;;;32.20;33.60;;;;;;5090010;28;20055;-69
2023/06/12 12:21:46;;;;;;;7.60;4.30;;;32.10;32.50;;;;;;5091450;28;20024;-67
2023/06/12 12:24:12;;;;;;;4.65;3.80;;;32.20;32.40;;;;;;5092137;28;20035;-68
2023/06/12 12:26:41;;;;;;;7.45;4.13;;;32.30;32.50;;;;;;5095912;28;20047;-68
2023/06/12 12:29:08;;;;;;;4.65;3.60;;;32.50;32.20;;;;;;5093852;28;20126;-67
2023/06/12 12:31:36;;;;;;;4.22;3.72;;;32.90;31.60;;;;;;5099604;28;20052;-68
2023/06/12 12:34:02;;;;;;;5.78;4.15;;;33.00;31.40;;;;;;5085634;28;20406;-69
2023/06/12 12:36:27;;;;;;;6.00;4.30;;;33.00;30.80;;;;;;5095811;28;20031;-68
2023/06/12 12:38:53;;;;;;;5.22;3.58;;;32.80;31.20;;;;;;5090890;28;20024;-68
2023/06/12 12:41:19;;;;;;;5.55;3.92;;;32.80;31.60;;;;;;5091114;28;20019;-69
2023/06/12 12:43:44;;;;;;;4.88;4.00;;;33.00;31.80;;;;;;5092106;28;20020;-68
2023/06/12 12:46:10;;;;;;;5.47;4.10;;;32.70;31.70;;;;;;5094329;28;20024;-68
2023/06/12 12:48:37;;;;;;;4.82;4.30;;;32.60;31.90;;;;;;5094003;28;20036;-68